Time;durP1;ratioP1;P1;durP2;ratioP2;P2;SDS_P1;SDS_P2;PMS_P1;PMS_P2;Temp;Humidity;BMP_temperature;BMP_pressure;BME280_temperature;BME280_humidity;BME280_pressure;Samples;Min_cycle;Max_cycle;Signal;HPM_P1;HPM_P2
2022/03/01 04:01:03;;;;;;;17.57;14.90;;;-3.10;99.90;;;;;;5635821;23;20231;-78
2022/03/01 04:03:28;;;;;;;17.90;15.93;;;-3.20;99.90;;;;;;4966771;29;20288;-77
2022/03/01 04:05:54;;;;;;;24.33;17.37;;;-3.20;99.90;;;;;;4967100;29;20182;-78
2022/03/01 04:08:20;;;;;;;19.17;14.87;;;-3.30;99.90;;;;;;4966486;29;20233;-78
2022/03/01 04:10:47;;;;;;;18.00;14.07;;;-3.30;99.90;;;;;;4971525;28;20835;-78
2022/03/01 04:13:13;;;;;;;16.47;14.73;;;-3.30;99.90;;;;;;4984395;28;20188;-78
2022/03/01 04:15:39;;;;;;;19.73;15.67;;;-3.30;99.90;;;;;;4984709;28;20185;-78
2022/03/01 04:18:05;;;;;;;22.77;16.40;;;-3.30;99.90;;;;;;4990640;23;20260;-75
2022/03/01 04:20:31;;;;;;;20.13;16.37;;;-3.40;99.90;;;;;;4949649;29;20186;-74
2022/03/01 04:22:57;;;;;;;20.80;15.37;;;-3.40;99.90;;;;;;4952237;28;20736;-75
2022/03/01 04:25:23;;;;;;;22.27;15.87;;;-3.40;99.90;;;;;;4955459;29;20261;-75
2022/03/01 04:27:49;;;;;;;20.23;16.03;;;-3.40;99.90;;;;;;4943125;29;20261;-75
2022/03/01 04:30:16;;;;;;;20.80;13.93;;;-3.40;99.90;;;;;;4934387;29;20182;-76
2022/03/01 04:32:43;;;;;;;20.37;15.87;;;-3.50;99.90;;;;;;4932010;29;20559;-76
2022/03/01 04:35:10;;;;;;;21.47;15.87;;;-3.50;99.90;;;;;;4932169;29;20182;-76
2022/03/01 04:37:37;;;;;;;17.70;15.50;;;-3.50;99.90;;;;;;4934536;29;20694;-77
2022/03/01 04:40:08;;;;;;;21.17;16.50;;;-3.50;99.90;;;;;;4933867;29;20190;-76
2022/03/01 04:42:34;;;;;;;18.70;15.20;;;-3.60;99.90;;;;;;4933600;29;20214;-76
2022/03/01 04:45:00;;;;;;;19.27;15.60;;;-3.60;99.90;;;;;;4932585;29;20183;-76
2022/03/01 04:47:27;;;;;;;24.50;15.43;;;-3.60;99.90;;;;;;4931770;29;20694;-77
2022/03/01 04:49:52;;;;;;;22.93;14.63;;;-3.60;99.90;;;;;;4948003;29;20183;-77
2022/03/01 04:52:18;;;;;;;20.23;15.40;;;-3.70;99.90;;;;;;4932628;29;20705;-77
2022/03/01 04:54:45;;;;;;;19.27;14.80;;;-3.80;99.90;;;;;;4932333;29;20182;-77
2022/03/01 04:57:11;;;;;;;17.63;13.80;;;-3.70;99.90;;;;;;4933333;29;20190;-75
2022/03/01 04:59:37;;;;;;;18.47;16.30;;;-3.70;99.90;;;;;;4935861;29;20190;-76
2022/03/01 05:02:03;;;;;;;21.47;15.77;;;-3.70;99.90;;;;;;4936077;29;20542;-79
2022/03/01 05:04:29;;;;;;;19.60;14.57;;;-3.70;99.90;;;;;;4933732;29;20186;-75
2022/03/01 05:06:55;;;;;;;18.10;15.27;;;-3.70;99.90;;;;;;4942901;29;20266;-77
2022/03/01 05:09:21;;;;;;;20.77;15.50;;;-3.80;99.90;;;;;;4936768;29;20273;-77
2022/03/01 05:11:49;;;;;;;22.60;16.27;;;-3.70;99.90;;;;;;4937469;29;20189;-78
2022/03/01 05:14:15;;;;;;;21.80;15.83;;;-3.80;99.90;;;;;;4937457;29;20280;-78
2022/03/01 05:16:41;;;;;;;16.33;14.33;;;-3.80;99.90;;;;;;4937537;29;20209;-77
2022/03/01 05:19:09;;;;;;;17.20;14.33;;;-3.90;99.90;;;;;;4936919;29;20218;-78
2022/03/01 05:21:35;;;;;;;21.63;16.23;;;-3.90;99.90;;;;;;4942191;29;20210;-76
2022/03/01 05:24:02;;;;;;;24.60;15.43;;;-3.90;99.90;;;;;;4938355;29;20246;-77
2022/03/01 05:26:28;;;;;;;19.10;14.50;;;-3.80;99.90;;;;;;4937413;29;20230;-78
2022/03/01 05:28:53;;;;;;;21.27;19.03;;;-3.70;99.90;;;;;;4935983;29;20202;-80
2022/03/01 05:31:19;;;;;;;18.67;16.27;;;-3.70;99.90;;;;;;4937814;29;20566;-77
2022/03/01 05:33:46;;;;;;;23.53;15.60;;;-3.70;99.90;;;;;;4938357;29;20674;-77
2022/03/01 05:36:13;;;;;;;23.03;17.40;;;-3.70;99.90;;;;;;4938433;29;20186;-77
2022/03/01 05:38:39;;;;;;;30.57;17.20;;;-3.80;99.90;;;;;;4936702;29;20206;-77
2022/03/01 05:41:05;;;;;;;25.53;17.03;;;-3.80;99.90;;;;;;4939648;29;20733;-77
2022/03/01 05:43:31;;;;;;;20.80;18.17;;;-3.90;99.90;;;;;;4939304;29;20277;-76
2022/03/01 05:45:57;;;;;;;21.03;15.97;;;-3.90;99.90;;;;;;4940255;29;20234;-78
2022/03/01 05:48:23;;;;;;;22.20;15.83;;;-3.80;99.90;;;;;;4941420;29;20202;-77
2022/03/01 05:50:49;;;;;;;19.80;13.67;;;-3.80;99.90;;;;;;4937450;29;20182;-77
2022/03/01 05:53:15;;;;;;;16.90;14.50;;;-3.80;99.90;;;;;;4938068;29;20191;-74
2022/03/01 05:55:41;;;;;;;18.67;15.30;;;-3.80;99.90;;;;;;4936745;29;20245;-74
2022/03/01 05:58:07;;;;;;;18.43;14.37;;;-3.70;99.90;;;;;;4936280;29;20209;-74
2022/03/01 06:00:33;;;;;;;22.03;16.13;;;-3.70;99.90;;;;;;4940123;29;20174;-73
2022/03/01 06:02:58;;;;;;;23.93;16.87;;;-3.70;99.90;;;;;;4958950;29;20277;-74
2022/03/01 06:05:25;;;;;;;21.40;17.73;;;-3.60;99.90;;;;;;4945115;29;20256;-75
2022/03/01 06:07:50;;;;;;;22.83;16.17;;;-3.60;99.90;;;;;;4937314;29;20198;-74
2022/03/01 06:10:16;;;;;;;25.37;17.13;;;-3.60;99.90;;;;;;4936252;29;20237;-75
2022/03/01 06:12:42;;;;;;;18.70;16.53;;;-3.60;99.90;;;;;;4935720;29;20551;-74
2022/03/01 06:15:09;;;;;;;25.67;18.73;;;-3.60;99.90;;;;;;4936171;29;20643;-73
2022/03/01 06:17:35;;;;;;;23.40;17.70;;;-3.60;99.90;;;;;;4933415;29;20229;-75
2022/03/01 06:20:02;;;;;;;30.30;18.93;;;-3.60;99.90;;;;;;4934556;29;20286;-74
2022/03/01 06:22:28;;;;;;;24.73;20.03;;;-3.60;99.90;;;;;;4933364;29;20349;-75
2022/03/01 06:24:55;;;;;;;27.47;17.47;;;-3.50;99.90;;;;;;4932850;29;20183;-74
2022/03/01 06:27:22;;;;;;;22.47;15.97;;;-3.50;99.90;;;;;;4933330;29;20560;-74
2022/03/01 06:29:48;;;;;;;20.53;14.47;;;-3.50;99.90;;;;;;4935157;29;20190;-75
2022/03/01 06:32:14;;;;;;;22.37;13.50;;;-3.40;99.90;;;;;;4936945;29;20614;-74
2022/03/01 06:34:39;;;;;;;19.83;12.50;;;-3.40;99.90;;;;;;4937859;29;20190;-74
2022/03/01 06:37:12;;;;;;;14.83;12.07;;;-3.40;99.90;;;;;;4933574;29;20230;-74
2022/03/01 06:39:42;;;;;;;19.70;13.37;;;-3.30;99.90;;;;;;4934383;29;20187;-75
2022/03/01 06:42:09;;;;;;;21.73;16.53;;;-3.10;99.90;;;;;;4934304;29;20214;-75
2022/03/01 06:44:36;;;;;;;26.77;24.03;;;-3.00;99.90;;;;;;4934313;29;20218;-75
2022/03/01 06:47:02;;;;;;;18.40;16.50;;;-2.90;99.90;;;;;;4935248;29;20182;-76
2022/03/01 06:49:28;;;;;;;22.30;19.97;;;-2.80;99.90;;;;;;4934016;29;20265;-75
2022/03/01 06:51:54;;;;;;;23.43;16.30;;;-2.60;99.90;;;;;;4935271;29;20655;-75
2022/03/01 06:54:19;;;;;;;19.83;13.90;;;-2.50;99.90;;;;;;4934017;29;20183;-75
2022/03/01 06:56:46;;;;;;;15.40;11.63;;;-2.40;99.90;;;;;;4933813;29;20577;-74
2022/03/01 06:59:13;;;;;;;21.03;14.90;;;-2.20;99.90;;;;;;4933831;29;20198;-76
2022/03/01 07:01:39;;;;;;;24.13;13.93;;;-2.10;99.90;;;;;;4934895;29;20281;-74
2022/03/01 07:04:05;;;;;;;19.60;13.77;;;-1.90;99.90;;;;;;4934573;29;20277;-76
2022/03/01 07:06:31;;;;;;;23.30;17.03;;;-1.80;99.90;;;;;;4933168;29;20271;-75
2022/03/01 07:08:57;;;;;;;22.30;13.77;;;-1.60;99.90;;;;;;4933299;29;20206;-76
2022/03/01 07:11:22;;;;;;;18.57;13.67;;;-1.50;99.90;;;;;;4933767;29;20185;-76
2022/03/01 07:13:49;;;;;;;21.40;13.90;;;-1.30;99.90;;;;;;4933631;29;20178;-75
2022/03/01 07:16:16;;;;;;;16.37;14.53;;;-1.10;99.90;;;;;;4934965;29;20182;-76
2022/03/01 07:18:42;;;;;;;15.50;11.57;;;-0.80;99.90;;;;;;4933898;29;20399;-73
2022/03/01 07:21:09;;;;;;;14.73;10.67;;;-0.40;99.90;;;;;;4934582;29;20198;-73
2022/03/01 07:23:35;;;;;;;17.40;10.73;;;0.10;99.90;;;;;;4934498;29;20394;-73
2022/03/01 07:26:01;;;;;;;15.30;13.00;;;0.60;99.90;;;;;;4934633;29;20275;-72
2022/03/01 07:28:27;;;;;;;14.20;12.70;;;0.90;99.90;;;;;;4933724;29;20202;-73
2022/03/01 07:30:54;;;;;;;20.17;13.67;;;1.20;99.90;;;;;;4934384;29;20193;-73
2022/03/01 07:33:20;;;;;;;16.10;12.07;;;1.40;99.90;;;;;;4930181;29;20234;-76
2022/03/01 07:35:46;;;;;;;18.73;13.07;;;1.70;99.90;;;;;;4915388;29;20190;-75
2022/03/01 07:38:12;;;;;;;13.77;10.10;;;1.80;99.90;;;;;;4915041;29;20738;-73
2022/03/01 07:40:38;;;;;;;12.60;10.33;;;2.00;99.90;;;;;;4915498;29;20652;-77
2022/03/01 07:43:07;;;;;;;13.13;11.33;;;2.20;99.90;;;;;;4915545;29;20206;-76
2022/03/01 07:45:36;;;;;;;15.53;11.70;;;2.40;99.90;;;;;;4922775;29;20202;-75
2022/03/01 07:48:03;;;;;;;16.93;12.77;;;2.60;99.90;;;;;;4935225;29;20224;-76
2022/03/01 07:50:30;;;;;;;18.83;12.53;;;3.00;99.90;;;;;;4934397;29;20195;-76
2022/03/01 07:52:55;;;;;;;16.27;13.03;;;3.00;99.90;;;;;;4933086;29;20182;-76
2022/03/01 07:55:22;;;;;;;11.67;9.73;;;3.20;99.90;;;;;;4933063;29;20629;-76
2022/03/01 07:57:48;;;;;;;14.63;10.63;;;3.50;99.90;;;;;;4934097;29;20586;-76
2022/03/01 08:00:14;;;;;;;16.53;10.87;;;3.30;99.90;;;;;;4933514;29;20278;-75
2022/03/01 08:02:41;;;;;;;16.53;11.40;;;3.10;99.90;;;;;;4934432;29;20217;-76
2022/03/01 08:05:11;;;;;;;13.57;10.90;;;2.90;99.90;;;;;;4933552;29;20216;-75
2022/03/01 08:07:37;;;;;;;15.40;11.60;;;2.80;99.90;;;;;;4933112;29;20197;-76
2022/03/01 08:10:03;;;;;;;12.73;9.77;;;2.90;99.90;;;;;;4934838;29;20189;-76
2022/03/01 08:12:29;;;;;;;16.33;12.90;;;3.20;99.90;;;;;;4934526;29;20647;-76
2022/03/01 08:14:55;;;;;;;15.40;11.70;;;3.40;99.90;;;;;;4934102;29;20273;-75
2022/03/01 08:17:21;;;;;;;16.50;11.77;;;3.90;99.40;;;;;;4933745;29;20190;-76
2022/03/01 08:19:47;;;;;;;12.60;10.90;;;4.20;97.30;;;;;;4926189;29;20191;-76
2022/03/01 08:22:13;;;;;;;12.93;10.00;;;4.10;96.60;;;;;;4929082;29;20552;-73
2022/03/01 08:24:39;;;;;;;13.83;10.60;;;4.00;96.40;;;;;;4935171;29;20194;-76
2022/03/01 08:27:05;;;;;;;12.97;10.47;;;4.10;95.90;;;;;;4932616;29;20301;-76
2022/03/01 08:29:31;;;;;;;14.97;11.27;;;4.10;95.10;;;;;;4934234;29;20197;-76
2022/03/01 08:31:57;;;;;;;16.00;10.77;;;4.20;94.80;;;;;;4934776;29;20524;-76
2022/03/01 08:34:22;;;;;;;13.37;10.50;;;4.30;94.20;;;;;;4934797;29;20190;-75
2022/03/01 08:36:49;;;;;;;10.73;9.63;;;4.50;93.80;;;;;;4936303;29;20643;-77
2022/03/01 08:39:14;;;;;;;10.03;9.00;;;4.50;93.30;;;;;;4935263;29;20209;-77
2022/03/01 08:41:40;;;;;;;16.40;11.60;;;4.40;92.80;;;;;;4937096;29;20658;-76
2022/03/01 08:44:06;;;;;;;12.97;10.07;;;4.30;92.90;;;;;;4938290;29;20209;-76
2022/03/01 08:46:32;;;;;;;14.47;10.73;;;4.50;93.20;;;;;;4952623;29;20238;-74
2022/03/01 08:48:58;;;;;;;10.37;9.30;;;4.70;92.10;;;;;;4951648;29;20206;-75
2022/03/01 08:51:25;;;;;;;17.53;11.50;;;4.70;91.40;;;;;;4937885;29;20558;-74
2022/03/01 08:53:53;;;;;;;13.13;10.20;;;4.80;91.70;;;;;;4938088;29;20622;-74
2022/03/01 08:56:19;;;;;;;12.83;8.63;;;5.10;91.10;;;;;;4937022;29;20178;-76
2022/03/01 08:58:46;;;;;;;13.17;10.27;;;4.70;90.30;;;;;;4935948;29;20638;-76
2022/03/01 09:01:12;;;;;;;14.10;10.67;;;4.60;90.90;;;;;;4941672;29;20534;-77
2022/03/01 09:03:38;;;;;;;10.03;9.13;;;4.80;90.70;;;;;;4924474;29;20301;-76
2022/03/01 09:06:05;;;;;;;12.77;10.70;;;4.90;90.20;;;;;;4916815;29;20718;-76
2022/03/01 09:08:35;;;;;;;9.70;8.80;;;4.90;90.30;;;;;;4921416;29;20203;-77
2022/03/01 09:11:01;;;;;;;13.53;10.83;;;5.10;88.70;;;;;;4919558;29;20187;-76
2022/03/01 09:13:27;;;;;;;11.90;10.63;;;4.90;89.20;;;;;;4917324;29;20187;-74
2022/03/01 09:15:54;;;;;;;11.37;10.17;;;5.40;89.30;;;;;;4919086;29;20555;-74
2022/03/01 09:18:21;;;;;;;11.57;10.37;;;6.00;86.40;;;;;;4931985;29;20264;-71
2022/03/01 09:20:47;;;;;;;13.10;11.53;;;6.00;82.70;;;;;;4937900;29;20258;-68
2022/03/01 09:23:13;;;;;;;14.03;11.57;;;5.90;83.80;;;;;;4937501;29;20202;-68
2022/03/01 09:25:39;;;;;;;12.17;10.87;;;5.80;83.50;;;;;;4937376;29;20547;-69
2022/03/01 09:28:05;;;;;;;20.87;15.87;;;5.90;81.60;;;;;;4936473;29;20202;-69
2022/03/01 09:30:31;;;;;;;16.80;12.93;;;6.00;82.70;;;;;;4935692;29;20657;-66
2022/03/01 09:32:57;;;;;;;13.30;10.33;;;6.60;79.90;;;;;;4936689;29;20194;-68
2022/03/01 09:35:23;;;;;;;14.40;12.90;;;6.80;77.00;;;;;;4936710;29;20569;-67
2022/03/01 09:37:49;;;;;;;12.23;11.03;;;7.20;76.30;;;;;;4936065;29;20698;-68
2022/03/01 09:40:15;;;;;;;11.97;10.23;;;7.60;74.40;;;;;;4951299;29;20186;-68
2022/03/01 09:42:42;;;;;;;13.50;10.23;;;8.20;72.20;;;;;;4936259;29;20705;-68
2022/03/01 09:45:10;;;;;;;13.80;9.40;;;8.80;69.70;;;;;;4936752;29;20199;-68
2022/03/01 09:47:38;;;;;;;13.83;7.57;;;9.10;66.70;;;;;;4935393;29;20262;-71
2022/03/01 09:50:06;;;;;;;10.57;9.33;;;8.80;64.70;;;;;;4935599;29;20207;-67
2022/03/01 09:52:32;;;;;;;13.30;9.47;;;8.60;65.70;;;;;;4935849;29;20229;-67
2022/03/01 09:54:59;;;;;;;10.17;9.10;;;8.30;65.20;;;;;;4936767;29;20594;-69
2022/03/01 09:57:24;;;;;;;13.13;9.80;;;8.10;65.80;;;;;;4936083;29;20248;-69
2022/03/01 09:59:50;;;;;;;10.17;8.87;;;8.10;66.80;;;;;;4936323;29;20684;-70
2022/03/01 10:02:16;;;;;;;10.67;9.33;;;8.60;65.60;;;;;;4934968;29;20216;-68
2022/03/01 10:04:52;;;;;;;10.67;9.50;;;8.60;63.70;;;;;;4936089;29;20257;-68
2022/03/01 10:07:26;;;;;;;14.97;9.77;;;8.60;64.20;;;;;;4934850;29;20545;-68
2022/03/01 10:09:53;;;;;;;11.87;10.57;;;8.60;62.30;;;;;;4936177;29;20212;-68
2022/03/01 10:12:26;;;;;;;12.53;10.57;;;8.80;63.40;;;;;;4936337;29;20274;-68
2022/03/01 10:14:59;;;;;;;12.53;11.30;;;9.20;62.30;;;;;;4936258;29;20244;-68
2022/03/01 10:17:32;;;;;;;11.40;10.20;;;9.80;60.80;;;;;;4935407;29;20218;-68
2022/03/01 10:20:08;;;;;;;13.80;9.73;;;10.20;58.90;;;;;;4972901;23;20231;-68
2022/03/01 10:22:37;;;;;;;11.43;10.30;;;10.30;58.30;;;;;;4955067;28;20225;-65
2022/03/01 10:25:08;;;;;;;11.10;9.10;;;10.70;56.60;;;;;;4955046;29;20186;-65
2022/03/01 10:27:34;;;;;;;11.73;10.37;;;11.40;55.40;;;;;;4954646;28;20557;-68
2022/03/01 10:30:01;;;;;;;10.50;9.40;;;11.10;54.40;;;;;;4936344;29;20670;-67
2022/03/01 10:32:27;;;;;;;11.63;9.82;;;11.10;54.40;;;;;;4934172;29;20576;-69
2022/03/01 10:34:59;;;;;;;10.00;8.53;;;11.30;53.50;;;;;;4935771;29;20277;-68
2022/03/01 10:37:30;;;;;;;10.57;9.53;;;11.60;52.50;;;;;;4935416;29;20245;-63
2022/03/01 10:40:17;;;;;;;9.87;8.77;;;11.50;52.20;;;;;;4935860;29;20619;-64
2022/03/01 10:42:44;;;;;;;11.37;10.23;;;11.20;51.70;;;;;;4935566;29;20206;-71
2022/03/01 10:45:10;;;;;;;11.03;9.47;;;11.40;51.60;;;;;;4935809;29;20175;-71
2022/03/01 10:47:37;;;;;;;9.40;8.60;;;12.20;50.20;;;;;;4935006;29;20182;-71
2022/03/01 10:50:10;;;;;;;8.60;7.80;;;12.10;49.20;;;;;;4934425;29;20241;-71
2022/03/01 10:52:39;;;;;;;11.20;9.17;;;11.90;49.10;;;;;;4935533;29;20198;-71
2022/03/01 10:55:07;;;;;;;11.47;9.60;;;11.30;50.70;;;;;;4934347;29;20332;-71
2022/03/01 10:57:33;;;;;;;10.50;9.40;;;11.90;49.80;;;;;;4933840;29;20256;-72
2022/03/01 10:59:58;;;;;;;13.17;10.53;;;12.60;47.80;;;;;;4935515;29;20694;-72
2022/03/01 11:02:24;;;;;;;10.00;9.00;;;13.00;47.60;;;;;;4935173;29;20237;-71
2022/03/01 11:04:51;;;;;;;10.27;8.23;;;13.20;46.00;;;;;;4934989;29;20198;-71
2022/03/01 11:07:18;;;;;;;10.10;9.10;;;14.00;45.50;;;;;;4934747;29;20192;-71
2022/03/01 11:09:45;;;;;;;12.23;8.60;;;14.20;44.10;;;;;;4935112;29;20675;-70
2022/03/01 11:12:11;;;;;;;9.83;7.83;;;14.50;43.80;;;;;;4933654;29;20730;-71
2022/03/01 11:14:55;;;;;;;11.63;9.00;;;14.20;43.30;;;;;;4935248;29;20187;-71
2022/03/01 11:17:40;;;;;;;10.63;8.13;;;13.90;42.50;;;;;;4934759;29;20190;-71
2022/03/01 11:20:14;;;;;;;10.17;9.17;;;13.90;42.70;;;;;;4934942;29;20313;-71
2022/03/01 11:22:46;;;;;;;10.40;9.23;;;14.00;42.50;;;;;;4933540;29;20214;-71
2022/03/01 11:25:20;;;;;;;8.73;7.87;;;14.50;41.50;;;;;;4935033;29;20888;-71
2022/03/01 11:27:59;;;;;;;9.20;8.30;;;15.00;39.10;;;;;;4935136;29;20718;-71
2022/03/01 11:30:28;;;;;;;8.90;8.00;;;14.70;40.00;;;;;;4935642;29;20182;-69
2022/03/01 11:32:56;;;;;;;11.53;9.57;;;15.40;39.20;;;;;;4935824;29;20198;-69
2022/03/01 11:35:24;;;;;;;9.60;8.60;;;14.50;39.90;;;;;;4932973;29;20198;-70
2022/03/01 11:38:11;;;;;;;9.83;8.47;;;14.90;39.30;;;;;;4933430;29;20606;-70
2022/03/01 11:40:41;;;;;;;9.50;8.50;;;14.40;41.60;;;;;;4934202;29;20190;-70
2022/03/01 11:43:12;;;;;;;9.87;8.87;;;14.60;41.70;;;;;;4932986;29;20767;-70
2022/03/01 11:45:43;;;;;;;9.40;8.50;;;15.20;39.70;;;;;;4934415;29;20560;-69
2022/03/01 11:48:15;;;;;;;10.60;9.60;;;16.00;37.70;;;;;;4933905;29;20695;-70
2022/03/01 11:50:50;;;;;;;11.47;10.17;;;16.70;35.90;;;;;;4934701;29;20273;-70
2022/03/01 11:53:18;;;;;;;11.97;10.97;;;16.80;35.60;;;;;;4934748;29;20651;-71
2022/03/01 11:55:56;;;;;;;11.03;10.03;;;16.90;35.20;;;;;;4934536;29;20182;-70
2022/03/01 11:58:24;;;;;;;11.43;10.33;;;17.50;34.40;;;;;;4932623;29;20209;-70
2022/03/01 12:00:50;;;;;;;13.07;11.87;;;17.40;33.60;;;;;;4915225;29;20195;-70
2022/03/01 12:03:21;;;;;;;12.77;11.67;;;17.60;34.30;;;;;;4915259;29;20221;-70
2022/03/01 12:05:51;;;;;;;14.53;13.23;;;17.70;32.50;;;;;;4915164;29;20683;-70
2022/03/01 12:08:18;;;;;;;15.40;14.00;;;16.30;32.60;;;;;;4915319;29;20250;-71
2022/03/01 12:10:59;;;;;;;13.93;12.60;;;16.70;32.60;;;;;;4930918;29;20648;-71
2022/03/01 12:13:38;;;;;;;14.53;13.23;;;17.10;32.70;;;;;;4922757;29;20553;-71
2022/03/01 12:16:04;;;;;;;13.03;11.87;;;18.30;31.60;;;;;;4932663;29;20190;-70
2022/03/01 12:18:35;;;;;;;15.17;13.97;;;18.10;30.60;;;;;;4933244;29;20205;-70
2022/03/01 12:21:05;;;;;;;17.33;15.83;;;16.80;32.80;;;;;;4933973;29;20194;-71
2022/03/01 12:23:33;;;;;;;15.23;13.83;;;17.00;32.20;;;;;;4933707;29;20210;-71
2022/03/01 12:26:05;;;;;;;15.47;14.10;;;16.50;34.90;;;;;;4932579;29;20716;-71
2022/03/01 12:28:40;;;;;;;15.03;13.77;;;15.80;35.90;;;;;;4933191;29;20206;-70
2022/03/01 12:31:08;;;;;;;15.67;14.37;;;16.30;33.70;;;;;;4932707;29;20182;-70
2022/03/01 12:33:34;;;;;;;15.70;14.40;;;16.50;34.40;;;;;;4933966;29;20269;-70
2022/03/01 12:36:03;;;;;;;15.47;14.17;;;15.90;35.40;;;;;;4933804;29;20765;-71
2022/03/01 12:38:31;;;;;;;16.57;15.20;;;14.90;36.80;;;;;;4933751;29;20217;-71
2022/03/01 12:41:08;;;;;;;14.93;13.73;;;15.90;34.50;;;;;;4939296;29;20681;-72
2022/03/01 12:43:34;;;;;;;13.37;12.17;;;17.10;31.80;;;;;;4937569;29;20248;-69
2022/03/01 12:45:59;;;;;;;13.30;12.13;;;16.70;31.70;;;;;;4934602;29;20214;-69
2022/03/01 12:48:25;;;;;;;15.23;13.90;;;15.80;31.80;;;;;;4933131;29;20246;-69
2022/03/01 12:50:53;;;;;;;13.73;12.63;;;15.60;32.90;;;;;;4933522;29;20178;-70
2022/03/01 12:53:20;;;;;;;14.53;13.33;;;16.30;33.70;;;;;;4934398;29;20193;-70
2022/03/01 12:55:49;;;;;;;14.17;12.87;;;16.60;33.20;;;;;;4933771;29;20182;-70
2022/03/01 12:58:20;;;;;;;13.27;12.03;;;16.90;33.90;;;;;;4933126;29;20202;-70
2022/03/01 13:00:48;;;;;;;13.70;12.40;;;16.60;32.90;;;;;;4932450;29;20187;-70
2022/03/01 13:03:27;;;;;;;13.87;12.67;;;17.70;30.70;;;;;;4933766;29;20214;-70
2022/03/01 13:06:04;;;;;;;12.93;11.83;;;18.40;30.00;;;;;;4929986;29;20213;-74
2022/03/01 13:08:34;;;;;;;13.60;12.23;;;18.50;29.50;;;;;;4919479;29;20198;-73
2022/03/01 13:11:00;;;;;;;12.80;11.70;;;19.00;29.10;;;;;;4932285;29;20194;-74
2022/03/01 13:13:26;;;;;;;14.17;12.80;;;18.90;29.10;;;;;;4931913;29;20179;-73
2022/03/01 13:15:52;;;;;;;14.67;13.43;;;18.00;31.30;;;;;;4933213;29;20206;-73
2022/03/01 13:18:26;;;;;;;15.07;13.57;;;18.40;32.10;;;;;;4931690;29;20214;-73
2022/03/01 13:20:52;;;;;;;13.40;12.30;;;18.60;31.60;;;;;;4933582;29;20241;-73
2022/03/01 13:23:26;;;;;;;14.17;12.97;;;17.60;32.50;;;;;;4931907;29;20686;-74
2022/03/01 13:25:51;;;;;;;14.50;13.27;;;15.80;34.50;;;;;;4933538;29;20209;-73
2022/03/01 13:28:17;;;;;;;17.50;16.00;;;14.60;35.20;;;;;;4935283;29;20279;-74
2022/03/01 13:30:43;;;;;;;15.77;14.57;;;13.90;37.50;;;;;;4936903;29;20189;-73
2022/03/01 13:33:11;;;;;;;15.40;14.20;;;14.30;37.80;;;;;;4935627;29;20198;-73
2022/03/01 13:35:39;;;;;;;15.10;13.80;;;15.30;35.80;;;;;;4935767;29;20257;-72
2022/03/01 13:38:07;;;;;;;15.00;13.47;;;16.10;34.20;;;;;;4936110;29;20182;-73
2022/03/01 13:40:36;;;;;;;15.33;14.10;;;15.80;34.30;;;;;;4936587;29;20187;-72
2022/03/01 13:43:16;;;;;;;15.53;14.23;;;14.60;35.80;;;;;;4936486;29;20222;-73
2022/03/01 13:45:43;;;;;;;14.57;13.23;;;15.40;36.20;;;;;;4936390;29;20178;-74
2022/03/01 13:48:14;;;;;;;15.13;13.83;;;16.30;34.10;;;;;;4935969;29;20265;-74
2022/03/01 13:50:42;;;;;;;15.57;14.37;;;16.20;34.50;;;;;;4936507;29;20662;-73
2022/03/01 13:53:13;;;;;;;16.13;14.63;;;15.00;36.00;;;;;;4936595;29;20182;-74
2022/03/01 13:55:40;;;;;;;19.23;17.63;;;13.80;37.20;;;;;;4935375;29;20189;-73
2022/03/01 13:58:11;;;;;;;17.50;16.03;;;13.20;38.80;;;;;;4934813;29;20274;-74
2022/03/01 14:00:40;;;;;;;16.53;15.20;;;13.20;38.00;;;;;;4935336;29;20194;-74
2022/03/01 14:03:11;;;;;;;17.43;15.80;;;13.20;38.60;;;;;;4936203;29;20217;-73
2022/03/01 14:05:41;;;;;;;14.20;13.00;;;13.00;39.80;;;;;;4935921;29;20697;-74
2022/03/01 14:08:12;;;;;;;14.43;13.33;;;12.80;40.00;;;;;;4934707;29;20189;-75
2022/03/01 14:10:59;;;;;;;13.17;11.93;;;12.00;39.60;;;;;;4936104;29;20678;-73
2022/03/01 14:13:28;;;;;;;10.37;9.47;;;11.60;41.30;;;;;;4934690;29;20245;-76
2022/03/01 14:16:22;;;;;;;11.73;10.53;;;11.30;42.60;;;;;;4936199;29;20771;-75
2022/03/01 14:19:03;;;;;;;10.93;9.83;;;10.90;42.20;;;;;;4933500;29;20222;-75
2022/03/01 14:21:30;;;;;;;11.73;9.73;;;10.90;42.70;;;;;;4934891;29;20237;-74
2022/03/01 14:23:57;;;;;;;10.33;9.23;;;11.40;43.00;;;;;;4934593;29;20778;-75
2022/03/01 14:26:23;;;;;;;10.57;9.47;;;11.60;42.50;;;;;;4934546;29;20222;-74
2022/03/01 14:29:01;;;;;;;14.70;10.40;;;11.40;42.50;;;;;;4935192;29;20225;-75
2022/03/01 14:31:29;;;;;;;11.07;9.97;;;11.80;42.00;;;;;;4934713;29;20714;-74
2022/03/01 14:33:56;;;;;;;10.60;9.60;;;12.00;41.30;;;;;;4934004;29;20197;-74
2022/03/01 14:36:21;;;;;;;11.30;10.10;;;12.60;41.70;;;;;;4935695;29;20181;-77
2022/03/01 14:38:48;;;;;;;14.13;12.53;;;12.80;38.60;;;;;;4934910;29;20624;-75
2022/03/01 14:41:14;;;;;;;13.43;12.10;;;13.10;37.80;;;;;;4936080;29;20189;-77
2022/03/01 14:43:40;;;;;;;15.00;13.13;;;13.30;37.30;;;;;;4935959;29;20304;-75
2022/03/01 14:46:06;;;;;;;14.10;12.90;;;13.30;36.70;;;;;;4935909;29;20309;-75
2022/03/01 14:48:32;;;;;;;13.87;12.47;;;13.20;38.30;;;;;;4934778;29;20236;-74
2022/03/01 14:50:58;;;;;;;13.00;11.77;;;12.90;38.90;;;;;;4934140;29;20529;-75
2022/03/01 14:53:24;;;;;;;14.83;12.97;;;12.20;39.50;;;;;;4934976;29;20179;-75
2022/03/01 14:55:51;;;;;;;13.67;12.47;;;12.20;39.10;;;;;;4934176;29;20197;-76
2022/03/01 14:58:17;;;;;;;12.90;11.90;;;11.90;37.50;;;;;;4934812;29;20202;-76
2022/03/01 15:00:44;;;;;;;13.53;12.13;;;11.80;37.60;;;;;;4934318;29;20673;-74
2022/03/01 15:03:09;;;;;;;13.53;12.43;;;11.70;37.80;;;;;;4934901;29;20622;-74
2022/03/01 15:05:35;;;;;;;13.57;12.10;;;11.40;39.10;;;;;;4934081;29;20318;-75
2022/03/01 15:08:01;;;;;;;14.53;13.03;;;11.40;39.70;;;;;;4934192;29;20265;-75
2022/03/01 15:10:27;;;;;;;21.10;18.83;;;11.10;39.00;;;;;;4939209;29;20224;-74
2022/03/01 15:12:53;;;;;;;11.60;10.50;;;10.70;39.80;;;;;;4934185;29;20187;-74
2022/03/01 15:15:20;;;;;;;11.70;10.50;;;10.40;40.50;;;;;;4932011;29;20564;-75
2022/03/01 15:17:47;;;;;;;12.37;10.97;;;10.30;40.10;;;;;;4929241;29;20183;-75
2022/03/01 15:20:18;;;;;;;10.13;9.13;;;10.20;40.50;;;;;;4914421;29;20219;-76
2022/03/01 15:22:45;;;;;;;12.77;11.33;;;10.20;40.60;;;;;;4933679;29;20573;-74
2022/03/01 15:25:11;;;;;;;11.67;10.47;;;10.20;40.60;;;;;;4934991;29;20178;-74
2022/03/01 15:27:38;;;;;;;11.67;10.47;;;10.00;40.70;;;;;;4934195;29;20250;-76
2022/03/01 15:30:06;;;;;;;11.97;9.50;;;9.80;41.40;;;;;;4934314;29;20210;-75
2022/03/01 15:32:32;;;;;;;13.47;9.80;;;9.70;41.70;;;;;;4933500;29;20194;-75
2022/03/01 15:34:58;;;;;;;10.63;9.37;;;9.80;42.20;;;;;;4934382;29;20182;-75
2022/03/01 15:37:24;;;;;;;11.83;9.27;;;9.90;42.00;;;;;;4933906;29;20194;-76
2022/03/01 15:39:50;;;;;;;10.33;9.43;;;9.90;42.40;;;;;;4934487;29;20237;-75
2022/03/01 15:42:16;;;;;;;10.63;9.60;;;9.80;41.70;;;;;;4933059;29;20194;-74
2022/03/01 15:44:42;;;;;;;10.20;9.20;;;9.70;41.90;;;;;;4934464;29;20607;-75
2022/03/01 15:47:08;;;;;;;9.23;8.27;;;9.70;42.10;;;;;;4932649;29;20193;-74
2022/03/01 15:49:36;;;;;;;9.93;8.93;;;9.50;42.70;;;;;;4932306;29;20198;-74
2022/03/01 15:52:03;;;;;;;10.07;9.17;;;9.40;42.70;;;;;;4932797;29;20273;-75
2022/03/01 15:54:29;;;;;;;10.37;9.37;;;9.30;42.70;;;;;;4932975;29;20183;-75
2022/03/01 15:56:55;;;;;;;9.67;8.73;;;9.20;42.90;;;;;;4933966;29;20187;-75
2022/03/01 15:59:20;;;;;;;10.73;9.63;;;9.10;43.50;;;;;;4934134;29;20202;-75
2022/03/01 16:01:46;;;;;;;10.47;9.27;;;9.00;43.80;;;;;;4933812;29;20182;-74
2022/03/01 16:04:13;;;;;;;12.27;9.63;;;8.90;44.00;;;;;;4933571;29;20209;-75
2022/03/01 16:06:40;;;;;;;12.33;10.30;;;8.80;44.10;;;;;;4932766;29;20190;-74
2022/03/01 16:09:06;;;;;;;19.57;11.93;;;8.70;44.70;;;;;;4933327;29;20224;-74
2022/03/01 16:11:32;;;;;;;15.20;12.37;;;8.70;44.80;;;;;;4932742;29;20178;-75
2022/03/01 16:13:57;;;;;;;11.10;10.00;;;8.60;44.90;;;;;;4933848;29;20233;-76
2022/03/01 16:16:23;;;;;;;13.47;9.93;;;8.60;45.30;;;;;;4934565;29;20602;-73
2022/03/01 16:18:49;;;;;;;12.70;10.23;;;8.60;45.30;;;;;;4953802;23;20308;-71
2022/03/01 16:21:15;;;;;;;12.47;10.53;;;8.50;45.70;;;;;;4933900;29;20265;-72
2022/03/01 16:23:44;;;;;;;12.27;9.63;;;8.60;46.00;;;;;;4933632;29;20210;-72
2022/03/01 16:26:10;;;;;;;12.97;9.73;;;8.70;46.40;;;;;;4933853;29;20182;-71
2022/03/01 16:28:36;;;;;;;12.47;10.43;;;8.90;46.90;;;;;;4932302;29;20205;-71
2022/03/01 16:31:04;;;;;;;12.17;10.37;;;8.70;48.40;;;;;;4933375;29;20213;-72
2022/03/01 16:33:30;;;;;;;11.50;10.20;;;8.50;49.80;;;;;;4933915;29;20236;-72
2022/03/01 16:35:56;;;;;;;11.03;9.90;;;8.30;50.90;;;;;;4933836;29;20242;-71